Time;durP1;ratioP1;P1;durP2;ratioP2;P2;SDS_P1;SDS_P2;PMS_P1;PMS_P2;Temp;Humidity;BMP_temperature;BMP_pressure;BME280_temperature;BME280_humidity;BME280_pressure;Samples;Min_cycle;Max_cycle;Signal;HPM_P1;HPM_P2
2024/04/17 00:00:58;;;;;;;3.38;2.35;;;6.90;99.90;;;;;;5450208;26;20068;-85
2024/04/17 00:03:23;;;;;;;6.45;2.40;;;7.00;99.90;;;;;;5465332;26;19998;-86
2024/04/17 00:05:49;;;;;;;4.95;2.75;;;6.90;99.90;;;;;;5403352;26;19999;-86
2024/04/17 00:08:14;;;;;;;3.75;2.33;;;6.90;99.90;;;;;;5440020;26;20003;-82
2024/04/17 00:10:41;;;;;;;3.03;1.90;;;6.90;99.90;;;;;;5449925;26;20091;-82
2024/04/17 00:13:06;;;;;;;2.83;2.10;;;6.90;99.90;;;;;;5449896;26;20017;-84
2024/04/17 00:15:32;;;;;;;6.43;2.08;;;6.90;99.90;;;;;;5417996;26;19991;-85
2024/04/17 00:17:57;;;;;;;8.25;1.85;;;6.90;99.90;;;;;;5449330;26;20746;-84
2024/04/17 00:20:23;;;;;;;2.38;2.08;;;6.90;99.90;;;;;;5446789;26;20072;-83
2024/04/17 00:22:48;;;;;;;2.22;1.75;;;6.90;97.10;;;;;;5450339;26;20382;-83
2024/04/17 00:25:14;;;;;;;1.55;1.45;;;6.90;92.20;;;;;;5450918;26;20015;-83
2024/04/17 00:27:40;;;;;;;2.78;1.50;;;6.90;55.30;;;;;;5450298;26;20003;-83
2024/04/17 00:30:06;;;;;;;1.95;1.77;;;6.90;66.80;;;;;;5450118;26;20017;-84
2024/04/17 00:32:32;;;;;;;2.28;1.75;;;6.80;39.30;;;;;;5447899;26;20080;-85
2024/04/17 00:34:57;;;;;;;1.67;1.58;;;6.80;33.80;;;;;;5449764;26;20011;-84
2024/04/17 00:37:23;;;;;;;1.75;1.65;;;6.80;26.20;;;;;;5448627;26;19994;-83
2024/04/17 00:39:48;;;;;;;3.17;1.52;;;6.80;25.90;;;;;;5450873;26;20013;-84
2024/04/17 00:42:14;;;;;;;3.10;2.10;;;6.80;39.70;;;;;;5450365;26;19994;-83
2024/04/17 00:44:39;;;;;;;2.58;1.92;;;6.80;29.00;;;;;;5450303;26;19994;-83
2024/04/17 00:47:08;;;;;;;3.80;1.90;;;6.80;33.00;;;;;;5449814;26;19995;-85
2024/04/17 00:49:35;;;;;;;1.92;1.77;;;6.70;41.60;;;;;;5449947;26;19994;-82
2024/04/17 00:52:01;;;;;;;2.67;2.13;;;6.70;50.30;;;;;;5442125;26;20023;-83
2024/04/17 00:54:27;;;;;;;2.85;1.75;;;6.70;64.00;;;;;;5406698;26;20010;-83
2024/04/17 00:56:53;;;;;;;2.17;2.08;;;6.70;74.90;;;;;;5401011;26;20003;-82
2024/04/17 00:59:18;;;;;;;2.63;2.10;;;6.70;65.80;;;;;;5413757;26;20004;-82
2024/04/17 01:01:44;;;;;;;5.80;2.30;;;6.70;54.00;;;;;;5411515;26;20048;-82
2024/04/17 01:04:10;;;;;;;3.45;2.58;;;6.70;62.20;;;;;;5413164;26;20349;-81
2024/04/17 01:06:35;;;;;;;3.45;1.90;;;6.70;60.90;;;;;;5388386;26;20008;-83
2024/04/17 01:09:01;;;;;;;2.17;1.98;;;6.70;85.60;;;;;;5414155;26;20018;-81
2024/04/17 01:11:36;;;;;;;2.35;1.90;;;6.60;85.90;;;;;;5409114;26;20035;-84
2024/04/17 01:14:01;;;;;;;5.28;2.25;;;6.70;63.60;;;;;;5394800;26;20076;-85
2024/04/17 01:16:27;;;;;;;4.80;2.70;;;6.70;67.50;;;;;;5381170;26;20007;-83
2024/04/17 01:18:53;;;;;;;3.20;1.90;;;6.70;62.10;;;;;;5414085;26;20013;-86
2024/04/17 01:21:19;;;;;;;5.72;1.83;;;6.70;44.80;;;;;;5412759;26;20004;-85
2024/04/17 01:23:52;;;;;;;3.05;2.17;;;6.70;56.90;;;;;;5411826;26;20344;-81
2024/04/17 01:26:18;;;;;;;4.50;2.65;;;6.70;57.40;;;;;;5412374;26;20000;-82
2024/04/17 01:28:43;;;;;;;2.95;2.03;;;6.70;57.80;;;;;;5408856;26;20010;-83
2024/04/17 01:31:09;;;;;;;5.53;2.63;;;6.70;46.60;;;;;;5412335;26;20032;-83
2024/04/17 01:33:35;;;;;;;2.95;1.92;;;6.60;44.70;;;;;;5409905;26;20484;-83
2024/04/17 01:36:00;;;;;;;2.42;1.92;;;6.70;21.00;;;;;;5395924;26;19996;-82
2024/04/17 01:38:26;;;;;;;5.22;2.20;;;6.60;16.40;;;;;;5411642;26;19999;-83
2024/04/17 01:40:51;;;;;;;5.80;1.90;;;6.60;16.90;;;;;;5410602;26;20076;-82
2024/04/17 01:43:17;;;;;;;3.25;2.00;;;6.70;7.10;;;;;;5379194;26;20473;-82
2024/04/17 01:45:46;;;;;;;2.80;2.08;;;6.60;3.80;;;;;;5412178;26;20000;-81
2024/04/17 01:48:12;;;;;;;7.85;2.33;;;6.70;1.00;;;;;;5411520;26;20027;-81
2024/04/17 01:50:38;;;;;;;5.78;2.35;;;6.70;1.00;;;;;;5397843;26;20438;-82
2024/04/17 01:53:03;;;;;;;5.78;1.95;;;6.70;1.00;;;;;;5433380;26;20654;-81
2024/04/17 01:55:29;;;;;;;8.38;2.47;;;6.70;1.00;;;;;;5447369;26;20006;-81
2024/04/17 01:57:55;;;;;;;5.32;2.20;;;6.60;1.00;;;;;;5447519;26;20464;-82
2024/04/17 02:00:20;;;;;;;10.13;2.40;;;6.70;1.00;;;;;;5447433;26;19998;-81
2024/04/17 02:02:46;;;;;;;7.65;2.47;;;6.70;1.00;;;;;;5446957;26;19994;-82
2024/04/17 02:05:12;;;;;;;2.78;2.10;;;6.60;1.00;;;;;;5447818;26;20027;-82
2024/04/17 02:07:38;;;;;;;5.05;2.50;;;6.60;1.00;;;;;;5407871;26;20001;-82
2024/04/17 02:10:04;;;;;;;4.47;3.10;;;6.60;1.00;;;;;;5448400;26;20348;-82
2024/04/17 02:12:30;;;;;;;7.78;3.03;;;6.60;1.00;;;;;;5447268;26;20010;-81
2024/04/17 02:14:55;;;;;;;16.65;4.10;;;6.50;1.00;;;;;;5447732;26;20026;-81
2024/04/17 02:17:21;;;;;;;7.55;2.60;;;6.50;1.00;;;;;;5446964;26;20466;-82
2024/04/17 02:19:46;;;;;;;3.08;2.28;;;6.40;1.00;;;;;;5447314;26;20026;-82
2024/04/17 02:22:12;;;;;;;15.98;3.03;;;6.40;1.00;;;;;;5448232;26;20014;-82
2024/04/17 02:24:38;;;;;;;10.27;2.92;;;6.40;1.00;;;;;;5426209;26;20026;-82
2024/04/17 02:27:04;;;;;;;7.13;2.58;;;6.40;1.00;;;;;;5448555;26;20615;-81
2024/04/17 02:29:29;;;;;;;8.18;2.53;;;6.30;1.00;;;;;;5446973;26;20013;-83
2024/04/17 02:31:55;;;;;;;7.10;3.05;;;6.30;1.00;;;;;;5447031;26;20030;-84
2024/04/17 02:34:21;;;;;;;6.55;2.65;;;6.30;1.00;;;;;;5446922;26;20014;-84
2024/04/17 02:36:47;;;;;;;5.82;3.20;;;6.20;1.00;;;;;;5448161;26;20025;-83
2024/04/17 02:39:12;;;;;;;7.57;2.95;;;6.20;1.00;;;;;;5437316;26;20716;-82
2024/04/17 02:41:38;;;;;;;8.68;3.17;;;6.20;1.00;;;;;;5436474;26;20359;-82
2024/04/17 02:44:04;;;;;;;12.55;2.75;;;6.10;1.00;;;;;;5447322;26;19999;-82
2024/04/17 02:46:30;;;;;;;8.20;2.95;;;6.10;6.20;;;;;;5414100;26;20072;-81
2024/04/17 02:48:55;;;;;;;8.75;3.05;;;6.00;10.80;;;;;;5415141;26;20650;-81
2024/04/17 02:51:21;;;;;;;5.10;3.00;;;6.00;24.20;;;;;;5396893;26;20080;-81
2024/04/17 02:53:47;;;;;;;6.20;2.80;;;5.90;28.10;;;;;;5439496;26;20003;-81
2024/04/17 02:56:12;;;;;;;5.70;2.88;;;5.90;24.80;;;;;;5428670;26;20396;-82
2024/04/17 02:58:38;;;;;;;7.38;2.92;;;5.90;20.90;;;;;;5435362;26;20519;-82
2024/04/17 03:01:14;;;;;;;14.38;2.97;;;5.80;23.80;;;;;;5446148;26;20006;-80
2024/04/17 03:03:40;;;;;;;6.30;2.85;;;5.80;29.40;;;;;;5445626;26;20019;-83
2024/04/17 03:06:06;;;;;;;12.25;2.63;;;5.70;25.60;;;;;;5441349;26;20079;-82
2024/04/17 03:08:32;;;;;;;6.72;3.05;;;5.70;15.90;;;;;;5401268;26;20009;-81
2024/04/17 03:11:02;;;;;;;14.13;4.10;;;5.70;8.80;;;;;;5445945;26;20018;-82
2024/04/17 03:13:28;;;;;;;11.60;2.67;;;5.70;7.00;;;;;;5423471;26;20027;-80
2024/04/17 03:15:53;;;;;;;9.32;2.75;;;5.60;12.70;;;;;;5446052;26;20006;-81
2024/04/17 03:18:20;;;;;;;10.25;2.67;;;5.60;17.60;;;;;;5445313;26;20432;-81
2024/04/17 03:20:46;;;;;;;9.68;2.88;;;5.60;18.80;;;;;;5445677;26;19995;-82
2024/04/17 03:23:12;;;;;;;10.15;3.05;;;5.60;7.70;;;;;;5445941;26;20014;-81
2024/04/17 03:25:37;;;;;;;14.55;2.80;;;5.60;3.50;;;;;;5446228;26;20511;-81
2024/04/17 03:28:04;;;;;;;9.30;2.63;;;5.60;1.00;;;;;;5437602;26;20014;-83
2024/04/17 03:30:31;;;;;;;10.50;2.58;;;5.50;1.00;;;;;;5411051;26;20018;-83
2024/04/17 03:32:56;;;;;;;9.27;2.75;;;5.50;1.00;;;;;;5413314;26;19995;-82
2024/04/17 03:35:22;;;;;;;13.02;3.03;;;5.50;1.00;;;;;;5445497;26;20003;-83
2024/04/17 03:37:48;;;;;;;8.55;3.13;;;5.40;1.00;;;;;;5446366;26;20003;-83
2024/04/17 03:40:13;;;;;;;11.20;3.13;;;5.30;1.00;;;;;;5446129;26;20044;-83
2024/04/17 03:42:39;;;;;;;4.57;2.45;;;5.20;1.00;;;;;;5445402;26;19999;-82
2024/04/17 03:45:05;;;;;;;10.68;2.90;;;5.20;1.00;;;;;;5412644;26;20003;-81
2024/04/17 03:47:31;;;;;;;14.77;2.53;;;5.10;1.00;;;;;;5412831;26;19995;-82
2024/04/17 03:50:06;;;;;;;14.40;2.83;;;5.00;1.00;;;;;;5445035;26;19995;-82
2024/04/17 03:52:32;;;;;;;18.77;3.42;;;5.00;1.00;;;;;;5445252;26;20021;-83
2024/04/17 03:54:58;;;;;;;14.38;2.97;;;4.90;1.00;;;;;;5446446;26;20898;-83
2024/04/17 03:57:26;;;;;;;9.45;2.45;;;4.90;1.00;;;;;;5413543;26;20006;-82
2024/04/17 03:59:52;;;;;;;17.60;3.63;;;4.80;1.00;;;;;;5445137;26;20007;-81
2024/04/17 04:02:17;;;;;;;13.35;2.75;;;4.70;1.00;;;;;;5422484;26;20318;-82
2024/04/17 04:04:43;;;;;;;14.73;2.95;;;4.70;4.60;;;;;;5413362;26;19991;-82
2024/04/17 04:07:08;;;;;;;7.50;2.88;;;4.60;5.90;;;;;;5446884;26;20456;-82
2024/04/17 04:09:34;;;;;;;8.15;3.10;;;4.70;7.90;;;;;;5447337;26;19994;-82
2024/04/17 04:12:00;;;;;;;12.43;3.25;;;4.60;8.60;;;;;;5448606;26;20010;-82
2024/04/17 04:14:26;;;;;;;10.18;2.85;;;4.50;12.20;;;;;;5421355;26;19995;-82
2024/04/17 04:16:51;;;;;;;11.45;2.92;;;4.50;19.20;;;;;;5410733;26;20003;-82
2024/04/17 04:19:17;;;;;;;6.55;2.63;;;4.40;25.70;;;;;;5415043;26;20003;-82
2024/04/17 04:21:43;;;;;;;17.17;3.13;;;4.40;36.10;;;;;;5414647;26;20557;-82
2024/04/17 04:24:08;;;;;;;25.17;3.00;;;4.30;45.90;;;;;;5414501;26;20019;-81
2024/04/17 04:26:34;;;;;;;12.63;3.92;;;4.30;48.60;;;;;;5419635;26;19991;-81
2024/04/17 04:28:59;;;;;;;9.00;3.42;;;4.30;59.30;;;;;;5404379;26;20467;-83
2024/04/17 04:31:26;;;;;;;8.75;3.63;;;4.20;65.20;;;;;;5447468;26;20014;-83
2024/04/17 04:33:51;;;;;;;7.72;4.03;;;4.10;72.30;;;;;;5445604;26;20009;-83
2024/04/17 04:36:17;;;;;;;13.07;4.03;;;4.00;88.60;;;;;;5439881;26;20008;-85
2024/04/17 04:38:44;;;;;;;12.35;3.78;;;4.00;95.00;;;;;;5443291;26;19995;-83
2024/04/17 04:41:10;;;;;;;13.93;3.53;;;4.00;99.90;;;;;;5441223;26;20387;-82
2024/04/17 04:43:35;;;;;;;11.57;3.60;;;3.90;99.90;;;;;;5440881;26;20017;-83
2024/04/17 04:46:01;;;;;;;26.40;4.85;;;3.90;99.90;;;;;;5413718;26;19995;-82
2024/04/17 04:48:27;;;;;;;12.38;3.85;;;3.80;99.90;;;;;;5438752;26;19999;-83
2024/04/17 04:50:52;;;;;;;13.85;3.83;;;3.80;99.90;;;;;;5443847;26;20452;-84
2024/04/17 04:53:18;;;;;;;25.65;5.00;;;3.80;99.90;;;;;;5442900;26;20002;-84
2024/04/17 04:55:58;;;;;;;9.02;3.72;;;3.70;99.90;;;;;;5445298;26;20010;-81
2024/04/17 04:58:24;;;;;;;24.08;4.78;;;3.70;99.90;;;;;;5441304;26;20090;-84
2024/04/17 05:00:50;;;;;;;21.63;5.15;;;3.80;99.90;;;;;;5426610;26;20022;-87
2024/04/17 05:03:16;;;;;;;13.35;5.15;;;3.90;99.90;;;;;;5435917;26;19998;-82
2024/04/17 05:05:41;;;;;;;13.57;4.43;;;3.90;99.90;;;;;;5419181;26;19995;-85
2024/04/17 05:08:07;;;;;;;15.20;4.30;;;3.90;99.90;;;;;;5421553;26;20016;-84
2024/04/17 05:10:33;;;;;;;9.63;4.05;;;3.90;99.90;;;;;;5446860;26;19995;-85
2024/04/17 05:12:58;;;;;;;21.05;5.47;;;3.80;99.90;;;;;;5434056;26;20071;-84
2024/04/17 05:15:25;;;;;;;14.95;4.30;;;3.80;99.90;;;;;;5439173;26;19999;-83
2024/04/17 05:17:50;;;;;;;14.07;4.72;;;3.70;99.90;;;;;;5428622;26;20017;-84
2024/04/17 05:20:16;;;;;;;14.50;4.43;;;3.70;99.90;;;;;;5439122;26;19994;-85
2024/04/17 05:22:42;;;;;;;13.40;5.03;;;3.60;99.90;;;;;;5400403;26;20517;-82
2024/04/17 05:25:07;;;;;;;19.10;4.97;;;3.70;99.90;;;;;;5406782;26;20023;-84
2024/04/17 05:27:33;;;;;;;16.40;6.65;;;3.70;99.90;;;;;;5407477;26;20003;-85
2024/04/17 05:29:58;;;;;;;16.33;5.10;;;3.70;99.90;;;;;;5437769;26;20031;-84
2024/04/17 05:32:24;;;;;;;18.92;5.97;;;3.60;99.90;;;;;;5388975;26;20011;-84
2024/04/17 05:34:50;;;;;;;15.38;5.30;;;3.70;99.90;;;;;;5438467;26;20093;-86
2024/04/17 05:37:16;;;;;;;21.02;6.07;;;3.70;99.90;;;;;;5444217;26;20537;-89
2024/04/17 05:39:41;;;;;;;14.02;4.78;;;3.80;99.90;;;;;;5410375;26;19996;-86
2024/04/17 05:42:07;;;;;;;12.52;4.60;;;3.90;99.90;;;;;;5397743;26;20661;-85
2024/04/17 05:44:33;;;;;;;12.88;4.60;;;4.00;99.90;;;;;;5397415;26;20565;-83
2024/04/17 05:46:58;;;;;;;11.48;4.70;;;4.10;99.90;;;;;;5423265;26;19999;-83
2024/04/17 05:49:24;;;;;;;10.13;4.50;;;4.10;99.90;;;;;;5405854;26;19992;-80
2024/04/17 05:51:49;;;;;;;19.77;6.25;;;4.30;99.90;;;;;;5440812;26;20006;-84
2024/04/17 05:54:15;;;;;;;17.45;6.75;;;4.40;99.90;;;;;;5400959;26;20401;-77
2024/04/17 05:56:41;;;;;;;14.90;5.68;;;4.50;99.90;;;;;;5446523;26;20013;-76
2024/04/17 05:59:06;;;;;;;10.25;4.55;;;4.70;99.90;;;;;;5445372;26;19999;-76
2024/04/17 06:01:32;;;;;;;17.60;4.85;;;4.80;61.90;;;;;;5445741;26;20075;-76
2024/04/17 06:03:58;;;;;;;10.35;3.80;;;4.90;18.90;;;;;;5433560;26;20013;-75
2024/04/17 06:06:23;;;;;;;16.73;4.43;;;5.10;1.00;;;;;;5446355;26;20029;-77
2024/04/17 06:08:49;;;;;;;14.35;4.38;;;5.20;1.00;;;;;;5428653;26;19994;-76
2024/04/17 06:11:15;;;;;;;12.90;4.43;;;5.40;1.00;;;;;;5419416;26;20401;-76
2024/04/17 06:13:40;;;;;;;23.52;4.97;;;5.40;1.00;;;;;;5414290;26;20370;-75
2024/04/17 06:16:07;;;;;;;12.05;4.63;;;5.50;99.90;;;;;;5419160;26;19995;-75
2024/04/17 06:18:32;;;;;;;8.82;3.85;;;5.60;99.90;;;;;;5414192;26;20583;-75
2024/04/17 06:20:58;;;;;;;8.88;3.70;;;5.60;99.90;;;;;;5416459;26;20000;-75
2024/04/17 06:23:23;;;;;;;12.57;3.85;;;5.80;99.90;;;;;;5426274;26;20451;-77
2024/04/17 06:25:49;;;;;;;12.27;4.07;;;5.70;99.90;;;;;;5428935;26;20000;-76
2024/04/17 06:28:15;;;;;;;14.23;3.38;;;5.90;99.90;;;;;;5443116;26;19994;-77
2024/04/17 06:30:41;;;;;;;17.42;4.10;;;6.00;99.90;;;;;;5437402;26;20065;-77
2024/04/17 06:33:06;;;;;;;14.38;3.30;;;6.20;99.90;;;;;;5419933;26;20003;-75
2024/04/17 06:35:36;;;;;;;16.92;4.10;;;6.20;99.90;;;;;;5426869;26;20006;-77
2024/04/17 06:38:01;;;;;;;10.93;3.83;;;6.30;99.90;;;;;;5422676;26;20011;-77
2024/04/17 06:40:27;;;;;;;10.27;3.80;;;6.50;99.90;;;;;;5431696;26;19990;-77
2024/04/17 06:42:53;;;;;;;16.08;3.78;;;6.70;99.90;;;;;;5425002;26;20530;-77
2024/04/17 06:45:18;;;;;;;16.85;3.63;;;6.90;99.90;;;;;;5430250;26;19998;-77
2024/04/17 06:47:44;;;;;;;13.32;3.20;;;6.90;99.90;;;;;;5436696;26;19995;-77
2024/04/17 06:50:10;;;;;;;10.95;3.33;;;7.00;99.90;;;;;;5444883;26;20459;-78
2024/04/17 06:52:36;;;;;;;15.63;3.60;;;7.10;99.90;;;;;;5412258;26;20001;-78
2024/04/17 06:55:02;;;;;;;17.73;3.58;;;7.10;99.90;;;;;;5386411;26;20004;-77
2024/04/17 06:57:28;;;;;;;10.85;3.40;;;7.30;99.90;;;;;;5426227;26;20017;-75
2024/04/17 06:59:54;;;;;;;7.65;3.63;;;7.50;99.90;;;;;;5437767;26;20348;-78
2024/04/17 07:02:19;;;;;;;10.48;3.70;;;7.80;99.90;;;;;;5445524;26;20071;-76
2024/04/17 07:04:45;;;;;;;16.27;3.60;;;7.90;99.90;;;;;;5428124;26;20329;-76
2024/04/17 07:07:11;;;;;;;9.05;3.50;;;7.80;99.90;;;;;;5441123;26;20068;-76
2024/04/17 07:09:37;;;;;;;6.82;2.60;;;7.90;99.90;;;;;;5465415;26;20016;-76
2024/04/17 07:12:03;;;;;;;13.13;3.38;;;8.00;99.90;;;;;;5453543;26;20002;-76
2024/04/17 07:14:29;;;;;;;7.88;3.22;;;8.10;99.90;;;;;;5452370;26;20484;-76
2024/04/17 07:16:55;;;;;;;12.55;2.97;;;8.20;99.90;;;;;;5441939;26;20304;-75
2024/04/17 07:19:24;;;;;;;11.35;3.50;;;8.30;99.90;;;;;;5432599;26;19996;-75
2024/04/17 07:21:50;;;;;;;14.90;3.50;;;8.40;99.90;;;;;;5435903;26;20105;-75
2024/04/17 07:24:16;;;;;;;16.42;3.20;;;8.40;99.90;;;;;;5403978;26;20006;-75
2024/04/17 07:26:41;;;;;;;14.35;3.42;;;8.40;99.90;;;;;;5440456;26;20067;-75
2024/04/17 07:29:07;;;;;;;14.48;3.10;;;8.20;99.90;;;;;;5416344;26;20019;-76
2024/04/17 07:31:33;;;;;;;8.65;2.65;;;8.00;99.90;;;;;;5443103;26;20056;-79
2024/04/17 07:33:58;;;;;;;10.43;2.85;;;8.10;99.90;;;;;;5434305;26;19995;-78
2024/04/17 07:36:24;;;;;;;16.98;3.08;;;8.00;99.90;;;;;;5445644;26;19991;-77
2024/04/17 07:38:49;;;;;;;13.77;3.30;;;8.00;99.90;;;;;;5424332;26;20476;-77
2024/04/17 07:41:15;;;;;;;11.38;3.10;;;7.90;99.90;;;;;;5433563;26;20075;-77
2024/04/17 07:43:41;;;;;;;13.98;2.45;;;7.90;99.90;;;;;;5445031;26;19995;-79
2024/04/17 07:46:06;;;;;;;12.45;3.10;;;8.10;99.90;;;;;;5440159;26;19995;-77
2024/04/17 07:48:32;;;;;;;9.80;2.97;;;8.50;99.90;;;;;;5381718;26;20006;-74
2024/04/17 07:50:58;;;;;;;5.32;2.47;;;9.00;99.90;;;;;;5432869;26;20068;-79
2024/04/17 07:53:23;;;;;;;5.35;2.55;;;9.40;99.90;;;;;;5425732;26;20432;-77
2024/04/17 07:55:49;;;;;;;11.40;2.35;;;9.40;98.70;;;;;;5431901;26;20026;-76
2024/04/17 07:58:15;;;;;;;15.18;2.72;;;9.60;91.40;;;;;;5444280;26;20010;-77
2024/04/17 08:00:41;;;;;;;9.68;2.28;;;10.10;79.40;;;;;;5445357;26;20001;-78
2024/04/17 08:03:07;;;;;;;4.40;2.33;;;10.10;28.10;;;;;;5442330;26;20002;-76
2024/04/17 08:05:33;;;;;;;6.15;2.10;;;9.90;11.20;;;;;;5424074;26;20024;-76
2024/04/17 08:07:58;;;;;;;6.80;2.20;;;9.80;20.80;;;;;;5441514;26;20140;-77
2024/04/17 08:10:24;;;;;;;9.15;2.47;;;9.70;26.20;;;;;;5431092;26;20008;-77
2024/04/17 08:12:52;;;;;;;9.00;2.60;;;9.40;21.20;;;;;;5431993;26;19995;-77
2024/04/17 08:15:20;;;;;;;15.05;2.95;;;9.50;37.70;;;;;;5433580;26;20029;-75
2024/04/17 08:17:47;;;;;;;11.75;2.55;;;9.50;69.20;;;;;;5427140;26;19995;-77
2024/04/17 08:20:13;;;;;;;11.13;2.42;;;9.50;37.40;;;;;;5418736;26;20068;-76
2024/04/17 08:22:38;;;;;;;11.57;2.85;;;9.40;32.80;;;;;;5436089;26;20006;-78
2024/04/17 08:25:05;;;;;;;10.18;2.60;;;9.50;30.00;;;;;;5442488;26;20360;-78
2024/04/17 08:27:30;;;;;;;6.38;2.30;;;9.50;18.60;;;;;;5381213;26;20000;-78
2024/04/17 08:29:56;;;;;;;11.88;3.05;;;9.50;2.60;;;;;;5426932;26;20052;-79
2024/04/17 08:32:22;;;;;;;7.13;2.38;;;9.40;3.80;;;;;;5439561;26;20009;-79
2024/04/17 08:34:47;;;;;;;14.13;2.95;;;9.20;26.80;;;;;;5433829;26;20085;-76
2024/04/17 08:37:13;;;;;;;12.48;3.50;;;8.90;42.40;;;;;;5428734;26;19999;-77
2024/04/17 08:39:38;;;;;;;7.13;3.38;;;8.60;77.70;;;;;;5419591;26;20013;-78
2024/04/17 08:42:06;;;;;;;9.30;3.10;;;8.40;91.40;;;;;;5415956;26;20074;-77
2024/04/17 08:44:35;;;;;;;8.02;2.75;;;8.20;94.50;;;;;;5429707;26;20045;-77
2024/04/17 08:47:03;;;;;;;7.97;3.08;;;8.10;99.90;;;;;;5435408;26;20050;-78
2024/04/17 08:49:33;;;;;;;6.63;3.42;;;8.30;99.90;;;;;;5434587;26;19998;-78
2024/04/17 08:52:02;;;;;;;9.02;3.25;;;9.10;99.90;;;;;;5450853;26;19991;-79
2024/04/17 08:54:33;;;;;;;9.27;3.65;;;9.40;71.80;;;;;;5454859;26;19998;-78
2024/04/17 08:56:58;;;;;;;6.38;3.38;;;9.10;76.50;;;;;;5452020;26;20049;-79
2024/04/17 08:59:24;;;;;;;14.38;3.85;;;9.00;74.10;;;;;;5450403;26;20000;-78
2024/04/17 09:01:50;;;;;;;7.32;3.80;;;9.50;64.90;;;;;;5419533;26;20011;-78
2024/04/17 09:04:17;;;;;;;11.80;3.45;;;9.60;24.30;;;;;;5465946;26;20007;-78
2024/04/17 09:06:43;;;;;;;6.55;2.88;;;9.90;68.60;;;;;;5438366;26;20567;-78
2024/04/17 09:09:12;;;;;;;3.75;2.92;;;9.90;1.00;;;;;;5449117;26;20011;-76
2024/04/17 09:11:38;;;;;;;8.35;3.72;;;9.70;1.00;;;;;;5448251;26;20500;-78
2024/04/17 09:14:04;;;;;;;6.50;3.60;;;9.40;1.00;;;;;;5448482;26;19991;-79
2024/04/17 09:16:29;;;;;;;8.30;3.33;;;9.10;14.20;;;;;;5446885;26;20076;-79
2024/04/17 09:18:55;;;;;;;9.10;3.97;;;8.90;43.90;;;;;;5449848;26;20398;-80
2024/04/17 09:21:21;;;;;;;9.02;3.33;;;8.90;86.20;;;;;;5443192;26;20040;-77
2024/04/17 09:23:46;;;;;;;11.55;4.00;;;8.70;99.90;;;;;;5431331;26;20077;-78
2024/04/17 09:26:17;;;;;;;8.63;4.13;;;8.70;97.40;;;;;;5437533;26;20018;-77
2024/04/17 09:28:43;;;;;;;8.98;4.53;;;8.40;99.90;;;;;;5447618;26;20002;-77
2024/04/17 09:31:10;;;;;;;11.93;4.20;;;7.50;99.90;;;;;;5424978;26;20464;-77
2024/04/17 09:33:43;;;;;;;7.82;4.35;;;7.40;99.90;;;;;;5423597;26;20803;-78
2024/04/17 09:36:08;;;;;;;8.30;4.70;;;7.30;99.90;;;;;;5416342;26;19999;-77
2024/04/17 09:38:35;;;;;;;6.10;4.03;;;7.50;99.90;;;;;;5414568;26;20511;-78
2024/04/17 09:41:00;;;;;;;12.82;4.57;;;8.30;99.90;;;;;;5410998;26;20117;-78
2024/04/17 09:43:27;;;;;;;9.65;4.50;;;9.20;99.90;;;;;;5416953;26;20685;-78
2024/04/17 09:46:05;;;;;;;8.50;3.65;;;10.00;99.90;;;;;;5444407;26;19991;-76
2024/04/17 09:48:33;;;;;;;7.25;3.90;;;10.30;99.90;;;;;;5440389;26;20953;-77
2024/04/17 09:51:05;;;;;;;9.50;3.90;;;10.70;48.60;;;;;;5421632;26;19999;-78
2024/04/17 09:53:33;;;;;;;10.30;3.50;;;11.50;54.40;;;;;;5420061;26;19999;-80
2024/04/17 09:55:59;;;;;;;13.02;4.68;;;12.30;1.00;;;;;;5427716;26;19992;-79
2024/04/17 09:58:32;;;;;;;10.10;3.28;;;11.40;59.20;;;;;;5426636;26;19996;-79
2024/04/17 10:01:08;;;;;;;12.35;3.63;;;10.70;99.90;;;;;;5419572;26;20014;-76
2024/04/17 10:03:35;;;;;;;12.63;4.47;;;10.70;45.80;;;;;;5444339;26;20003;-77
2024/04/17 10:06:01;;;;;;;13.82;3.75;;;10.50;99.90;;;;;;5442809;26;20031;-79
2024/04/17 10:08:29;;;;;;;10.43;3.67;;;10.10;80.70;;;;;;5441931;26;20003;-77
2024/04/17 10:10:56;;;;;;;11.10;3.47;;;9.60;76.60;;;;;;5439064;26;20003;-78
2024/04/17 10:13:23;;;;;;;6.65;3.35;;;9.30;99.90;;;;;;5418206;26;19994;-75
2024/04/17 10:15:49;;;;;;;7.32;2.80;;;8.60;99.90;;;;;;5416787;26;19999;-77
2024/04/17 10:18:15;;;;;;;6.32;3.42;;;8.20;99.90;;;;;;5426022;26;20018;-78
2024/04/17 10:20:42;;;;;;;10.38;3.92;;;7.90;99.90;;;;;;5446172;26;20002;-76
2024/04/17 10:23:09;;;;;;;11.20;3.92;;;8.10;99.90;;;;;;5439179;26;20041;-77
2024/04/17 10:25:54;;;;;;;10.70;4.43;;;8.70;99.90;;;;;;5438661;26;19991;-77
2024/04/17 10:28:21;;;;;;;10.93;5.28;;;9.50;99.90;;;;;;5379813;26;19996;-79
2024/04/17 10:30:48;;;;;;;7.05;4.07;;;10.60;99.90;;;;;;5432635;26;19992;-80
2024/04/17 10:33:36;;;;;;;9.80;4.32;;;11.70;95.80;;;;;;5434615;26;20013;-79
2024/04/17 10:36:05;;;;;;;12.23;4.35;;;11.70;99.90;;;;;;5444966;26;20440;-79
2024/04/17 10:38:32;;;;;;;10.20;4.45;;;11.60;99.90;;;;;;5440762;26;20002;-79
2024/04/17 10:41:00;;;;;;;10.90;5.28;;;10.80;64.10;;;;;;5430475;26;20003;-78
2024/04/17 10:43:28;;;;;;;8.60;4.40;;;10.00;99.90;;;;;;5431655;26;20488;-78
2024/04/17 10:46:10;;;;;;;14.82;5.00;;;9.40;99.90;;;;;;5424654;26;20014;-79
2024/04/17 10:49:02;;;;;;;14.05;5.78;;;9.10;99.90;;;;;;5421123;26;19999;-78
2024/04/17 10:51:28;;;;;;;7.40;4.68;;;8.60;99.90;;;;;;5421390;26;20002;-77
2024/04/17 10:53:55;;;;;;;6.50;3.70;;;8.50;99.90;;;;;;5422939;26;20110;-78
2024/04/17 10:56:22;;;;;;;8.77;3.00;;;8.20;99.90;;;;;;5445171;26;19999;-76
2024/04/17 10:58:47;;;;;;;8.05;3.60;;;7.80;99.90;;;;;;5438639;26;19995;-77
2024/04/17 11:01:13;;;;;;;3.60;2.05;;;7.60;99.90;;;;;;5399849;26;20010;-77
2024/04/17 11:03:39;;;;;;;4.95;2.03;;;7.00;99.90;;;;;;5428675;26;20071;-77
2024/04/17 11:06:08;;;;;;;2.03;1.63;;;6.40;99.90;;;;;;5421083;26;20005;-77
2024/04/17 11:08:38;;;;;;;4.93;1.20;;;6.20;1.00;;;;;;5417988;26;20035;-75
2024/04/17 11:11:04;;;;;;;0.90;0.90;;;6.30;99.90;;;;;;5417660;26;20003;-76
2024/04/17 11:13:29;;;;;;;1.00;1.00;;;6.40;99.90;;;;;;5417692;26;20092;-76
2024/04/17 11:15:55;;;;;;;6.70;4.32;;;6.50;1.00;;;;;;5407939;26;20447;-75
2024/04/17 11:18:20;;;;;;;1.70;1.60;;;6.70;1.00;;;;;;5428470;26;19995;-76
2024/04/17 11:20:46;;;;;;;2.20;1.10;;;6.80;1.00;;;;;;5433656;26;20006;-74
2024/04/17 11:23:12;;;;;;;3.50;2.00;;;6.80;99.90;;;;;;5439990;26;19994;-76
2024/04/17 11:25:40;;;;;;;4.38;1.65;;;6.80;99.90;;;;;;5433748;26;20009;-76
2024/04/17 11:28:11;;;;;;;0.95;0.95;;;6.80;99.90;;;;;;5446429;26;20418;-75
2024/04/17 11:30:44;;;;;;;1.10;1.10;;;6.60;99.90;;;;;;5419156;26;20499;-76
2024/04/17 11:33:10;;;;;;;3.30;0.73;;;6.60;99.90;;;;;;5417255;26;20014;-77
2024/04/17 11:35:36;;;;;;;0.85;0.80;;;6.50;99.90;;;;;;5437315;26;20497;-75
2024/04/17 11:38:01;;;;;;;0.88;0.80;;;6.60;99.90;;;;;;5420958;26;20015;-75
2024/04/17 11:40:27;;;;;;;1.98;0.70;;;6.60;99.90;;;;;;5440339;26;20007;-75
2024/04/17 11:42:53;;;;;;;1.90;0.82;;;6.70;99.90;;;;;;5441006;26;20655;-75
2024/04/17 11:45:18;;;;;;;1.65;0.90;;;7.20;99.90;;;;;;5420456;26;19995;-76
2024/04/17 11:47:44;;;;;;;0.68;0.60;;;7.50;99.90;;;;;;5414037;26;20004;-76
2024/04/17 11:50:10;;;;;;;2.67;0.88;;;7.90;99.90;;;;;;5384303;26;20022;-77
2024/04/17 11:52:36;;;;;;;1.25;0.90;;;8.00;99.90;;;;;;5422849;26;20013;-74
2024/04/17 11:55:02;;;;;;;1.30;1.20;;;8.00;99.90;;;;;;5438512;26;19996;-78
2024/04/17 11:57:29;;;;;;;3.13;1.15;;;8.30;99.90;;;;;;5435109;26;20030;-79
2024/04/17 11:59:55;;;;;;;1.80;1.20;;;8.80;99.90;;;;;;5428849;26;20076;-75
2024/04/17 12:02:21;;;;;;;3.20;1.10;;;9.70;99.90;;;;;;5427572;26;20007;-77
2024/04/17 12:04:47;;;;;;;1.98;0.85;;;9.60;99.90;;;;;;5424281;26;20695;-75
2024/04/17 12:07:13;;;;;;;3.50;0.90;;;10.40;99.90;;;;;;5418942;26;19999;-78
2024/04/17 12:09:39;;;;;;;5.75;1.10;;;11.10;63.20;;;;;;5426733;26;20014;-77
2024/04/17 12:12:05;;;;;;;4.15;1.10;;;11.80;93.40;;;;;;5418766;26;20012;-78
2024/04/17 12:14:31;;;;;;;2.20;0.90;;;11.40;99.90;;;;;;5416975;26;20025;-77
2024/04/17 12:16:56;;;;;;;1.08;0.90;;;11.70;61.00;;;;;;5434074;26;19995;-79
2024/04/17 12:19:22;;;;;;;1.20;0.70;;;12.30;1.00;;;;;;5379750;26;19991;-78
2024/04/17 12:21:48;;;;;;;1.25;0.93;;;12.10;1.00;;;;;;5428375;26;19991;-78
2024/04/17 12:24:19;;;;;;;3.05;1.38;;;12.50;1.00;;;;;;5400589;26;20014;-78
2024/04/17 12:26:51;;;;;;;2.85;0.88;;;12.60;1.00;;;;;;5444970;26;20010;-79
2024/04/17 12:29:21;;;;;;;0.75;0.70;;;13.20;99.90;;;;;;5444940;26;20009;-79
2024/04/17 12:31:47;;;;;;;2.22;0.95;;;14.40;99.90;;;;;;5442312;26;20389;-78
2024/04/17 12:34:13;;;;;;;1.23;1.02;;;14.00;99.90;;;;;;5441501;26;20029;-79
2024/04/17 12:36:38;;;;;;;5.55;1.48;;;12.20;99.90;;;;;;5434224;26;20364;-78
2024/04/17 12:39:05;;;;;;;3.33;1.17;;;10.60;99.90;;;;;;5441512;26;19999;-78
2024/04/17 12:41:31;;;;;;;4.50;1.17;;;11.50;22.30;;;;;;5433289;26;20010;-78
2024/04/17 12:43:57;;;;;;;5.68;1.25;;;12.80;1.00;;;;;;5440908;26;20003;-79
2024/04/17 12:46:22;;;;;;;0.88;0.80;;;14.90;99.90;;;;;;5432736;26;20005;-79
2024/04/17 12:48:48;;;;;;;3.10;0.95;;;14.80;99.90;;;;;;5420154;26;19995;-79